Elmar Dos — EAJM — position and weather

sailwx.info

Track history (hours):
 
Tides and Currents Weather Stations Pressure Air Temp Water Temp Dewpoint Dewpoint Depression Visibility Wind Speed Wind Dir Waves Ship Positions

Elmar Dos

Last reported at 2017-Aug-21 04:29 UTC. Time now 2017-Sep-26 11:06 UTC.
Position N 40°06' W 009°06'.
Warning: this ship's position is 36 days out of date.

Length 40 m; draft 1.7 m.

Type: Dredging. MMSI: 224040390.

Date/timePositionNaut miles runAvg speedWind from/ knotsBaromVisibWave heightAir tempDewpointWater temp
2017-Aug-21 04:29N 40°06' W 009°06'3 6.4
2017-Aug-21 04:00N 40°03' W 009°07'3 6.4
2017-Aug-21 03:30N 40°00' W 009°08'3 6.5
2017-Aug-21 03:00N 39°57' W 009°09'6 6.4
2017-Aug-21 02:04N 39°51' W 009°11'1 6.4
2017-Aug-21 01:58N 39°50' W 009°12'3 6.5
2017-Aug-21 01:28N 39°47' W 009°13'3 6.2
2017-Aug-21 01:00N 39°45' W 009°14'3 6.4
2017-Aug-21 00:30N 39°42' W 009°15'3 6.7
2017-Aug-21 00:00N 39°39' W 009°17'3 6.5
2017-Aug-20 23:30N 39°36' W 009°19'3 6.5
2017-Aug-20 23:00N 39°33' W 009°21'3 6.5
2017-Aug-20 22:30N 39°30' W 009°22'3 6.3
2017-Aug-20 22:00N 39°27' W 009°24'3 6.4
2017-Aug-20 21:30N 39°24' W 009°27'3 5.8
2017-Aug-20 21:00N 39°22' W 009°29'3 6.2
2017-Aug-20 20:30N 39°19' W 009°30'3 6.4
2017-Aug-20 20:01N 39°16' W 009°32'3 6.3
2017-Aug-20 19:31N 39°13' W 009°33'3 6.3
2017-Aug-20 19:00N 39°10' W 009°34'3 6.1
2017-Aug-20 18:30N 39°07' W 009°35'3 6.0
2017-Aug-20 18:01N 39°04' W 009°37'3 6.2
2017-Aug-20 17:30N 39°01' W 009°38'3 6.2
2017-Aug-20 17:00N 38°58' W 009°39'3 6.1
2017-Aug-20 16:30N 38°56' W 009°41'3 6.1
2017-Aug-20 16:01N 38°53' W 009°42'3 5.9
2017-Aug-20 15:31N 38°50' W 009°43'3 5.6
2017-Aug-20 15:01N 38°47' W 009°43'3 5.8
2017-Aug-20 14:30N 38°44' W 009°43'3 5.8
2017-Aug-20 14:01N 38°41' W 009°42'3 6.2
2017-Aug-20 13:31N 38°38' W 009°41'3 6.1
2017-Aug-20 13:01N 38°35' W 009°40'3 6.2
2017-Aug-20 12:30N 38°32' W 009°40'3 5.8
2017-Aug-20 12:00N 38°29' W 009°39'3 5.6
2017-Aug-20 11:30N 38°26' W 009°39'3 5.3
2017-Aug-20 11:00N 38°24' W 009°39'3 5.1
2017-Aug-20 10:30N 38°21' W 009°38'3 5.1
2017-Aug-20 10:00N 38°19' W 009°38'3 5.2
2017-Aug-20 09:30N 38°16' W 009°37'3 5.3
2017-Aug-20 09:00N 38°14' W 009°36'3 5.3
2017-Aug-20 08:30N 38°11' W 009°36'2 5.0
2017-Aug-20 08:00N 38°09' W 009°35'3 5.0
2017-Aug-20 07:30N 38°06' W 009°35'2 5.1
2017-Aug-20 07:00N 38°04' W 009°34'3 5.2
2017-Aug-20 06:30N 38°01' W 009°34'3 5.1
2017-Aug-20 06:00N 37°58' W 009°33'2 5.0
2017-Aug-20 05:30N 37°56' W 009°33'3 4.9
2017-Aug-20 04:54N 37°53' W 009°32'2 5.1
2017-Aug-20 04:30N 37°51' W 009°32'3 5.2
2017-Aug-20 04:00N 37°49' W 009°31'3 5.1
2017-Aug-20 03:30N 37°46' W 009°31'3 5.3
2017-Aug-20 03:00N 37°44' W 009°30'3 5.4
2017-Aug-20 02:30N 37°41' W 009°29'3 5.5
2017-Aug-20 01:55N 37°38' W 009°29'23 5.1
2017-Aug-19 21:27N 37°15' W 009°23'2 4.3
2017-Aug-19 20:59N 37°13' W 009°22'2 4.2
2017-Aug-19 20:29N 37°11' W 009°22'3 4.1
2017-Aug-19 19:45N 37°08' W 009°22'1 4.0
2017-Aug-19 19:30N 37°07' W 009°21'2 4.3
2017-Aug-19 19:00N 37°05' W 009°21'2 4.4
2017-Aug-19 18:30N 37°03' W 009°21'2 4.5
2017-Aug-19 18:00N 37°01' W 009°20'58 4.6
2017-Aug-19 05:22N 36°41' W 008°13'3 6.2
2017-Aug-19 04:56N 36°41' W 008°09'3 6.2
2017-Aug-19 04:28N 36°41' W 008°06'4 6.3
2017-Aug-19 03:47N 36°41' W 008°00'3 6.3
2017-Aug-19 03:20N 36°41' W 007°57'4 6.3
2017-Aug-19 02:41N 36°40' W 007°52'1 6.4
2017-Aug-19 02:30N 36°40' W 007°50'  
Track history (hours):
 
Tides and Currents Weather Stations Pressure Air Temp Water Temp Dewpoint Dewpoint Depression Visibility Wind Speed Wind Dir Waves Ship Positions

Elmar Dos

Last reported at 2017-Aug-21 04:29 UTC. Time now 2017-Sep-26 11:06 UTC.
Position N 40°06' W 009°06'.
Warning: this ship's position is 36 days out of date.

Length 40 m; draft 1.7 m.

Type: Dredging. MMSI: 224040390.

Date/timePositionNaut miles runAvg speedWind from/ knotsBaromVisibWave heightAir tempDewpointWater temp
2017-Aug-21 04:29N 40°06' W 009°06'3 6.4
2017-Aug-21 04:00N 40°03' W 009°07'3 6.4
2017-Aug-21 03:30N 40°00' W 009°08'3 6.5
2017-Aug-21 03:00N 39°57' W 009°09'6 6.4
2017-Aug-21 02:04N 39°51' W 009°11'1 6.4
2017-Aug-21 01:58N 39°50' W 009°12'3 6.5
2017-Aug-21 01:28N 39°47' W 009°13'3 6.2
2017-Aug-21 01:00N 39°45' W 009°14'3 6.4
2017-Aug-21 00:30N 39°42' W 009°15'3 6.7
2017-Aug-21 00:00N 39°39' W 009°17'3 6.5
2017-Aug-20 23:30N 39°36' W 009°19'3 6.5
2017-Aug-20 23:00N 39°33' W 009°21'3 6.5
2017-Aug-20 22:30N 39°30' W 009°22'3 6.3
2017-Aug-20 22:00N 39°27' W 009°24'3 6.4
2017-Aug-20 21:30N 39°24' W 009°27'3 5.8
2017-Aug-20 21:00N 39°22' W 009°29'3 6.2
2017-Aug-20 20:30N 39°19' W 009°30'3 6.4
2017-Aug-20 20:01N 39°16' W 009°32'3 6.3
2017-Aug-20 19:31N 39°13' W 009°33'3 6.3
2017-Aug-20 19:00N 39°10' W 009°34'3 6.1
2017-Aug-20 18:30N 39°07' W 009°35'3 6.0
2017-Aug-20 18:01N 39°04' W 009°37'3 6.2
2017-Aug-20 17:30N 39°01' W 009°38'3 6.2
2017-Aug-20 17:00N 38°58' W 009°39'3 6.1
2017-Aug-20 16:30N 38°56' W 009°41'3 6.1
2017-Aug-20 16:01N 38°53' W 009°42'3 5.9
2017-Aug-20 15:31N 38°50' W 009°43'3 5.6
2017-Aug-20 15:01N 38°47' W 009°43'3 5.8
2017-Aug-20 14:30N 38°44' W 009°43'3 5.8
2017-Aug-20 14:01N 38°41' W 009°42'3 6.2
2017-Aug-20 13:31N 38°38' W 009°41'3 6.1
2017-Aug-20 13:01N 38°35' W 009°40'3 6.2
2017-Aug-20 12:30N 38°32' W 009°40'3 5.8
2017-Aug-20 12:00N 38°29' W 009°39'3 5.6
2017-Aug-20 11:30N 38°26' W 009°39'3 5.3
2017-Aug-20 11:00N 38°24' W 009°39'3 5.1
2017-Aug-20 10:30N 38°21' W 009°38'3 5.1
2017-Aug-20 10:00N 38°19' W 009°38'3 5.2
2017-Aug-20 09:30N 38°16' W 009°37'3 5.3
2017-Aug-20 09:00N 38°14' W 009°36'3 5.3
2017-Aug-20 08:30N 38°11' W 009°36'2 5.0
2017-Aug-20 08:00N 38°09' W 009°35'3 5.0
2017-Aug-20 07:30N 38°06' W 009°35'2 5.1
2017-Aug-20 07:00N 38°04' W 009°34'3 5.2
2017-Aug-20 06:30N 38°01' W 009°34'3 5.1
2017-Aug-20 06:00N 37°58' W 009°33'2 5.0
2017-Aug-20 05:30N 37°56' W 009°33'3 4.9
2017-Aug-20 04:54N 37°53' W 009°32'2 5.1
2017-Aug-20 04:30N 37°51' W 009°32'3 5.2
2017-Aug-20 04:00N 37°49' W 009°31'3 5.1
2017-Aug-20 03:30N 37°46' W 009°31'3 5.3
2017-Aug-20 03:00N 37°44' W 009°30'3 5.4
2017-Aug-20 02:30N 37°41' W 009°29'3 5.5
2017-Aug-20 01:55N 37°38' W 009°29'23 5.1
2017-Aug-19 21:27N 37°15' W 009°23'2 4.3
2017-Aug-19 20:59N 37°13' W 009°22'2 4.2
2017-Aug-19 20:29N 37°11' W 009°22'3 4.1
2017-Aug-19 19:45N 37°08' W 009°22'1 4.0
2017-Aug-19 19:30N 37°07' W 009°21'2 4.3
2017-Aug-19 19:00N 37°05' W 009°21'2 4.4
2017-Aug-19 18:30N 37°03' W 009°21'2 4.5
2017-Aug-19 18:00N 37°01' W 009°20'58 4.6
2017-Aug-19 05:22N 36°41' W 008°13'3 6.2
2017-Aug-19 04:56N 36°41' W 008°09'3 6.2
2017-Aug-19 04:28N 36°41' W 008°06'4 6.3
2017-Aug-19 03:47N 36°41' W 008°00'3 6.3
2017-Aug-19 03:20N 36°41' W 007°57'4 6.3
2017-Aug-19 02:41N 36°40' W 007°52'1 6.4
2017-Aug-19 02:30N 36°40' W 007°50'  

Dump ship's entire track history